Time;durP1;ratioP1;P1;durP2;ratioP2;P2;SDS_P1;SDS_P2;PMS_P1;PMS_P2;Temp;Humidity;BMP_temperature;BMP_pressure;BME280_temperature;BME280_humidity;BME280_pressure;Samples;Min_cycle;Max_cycle;Signal;HPM_P1;HPM_P2
2021/08/12 00:02:04;;;;;;;3.03;2.72;;;;;;;;;;4918748;29;20207;-83
2021/08/12 00:04:32;;;;;;;3.05;2.78;;;;;;;;;;4916852;29;20237;-83
2021/08/12 00:07:00;;;;;;;3.58;3.28;;;;;;;;;;4918754;29;20233;-82
2021/08/12 00:09:29;;;;;;;4.40;2.90;;;;;;;;;;4918661;29;20229;-82
2021/08/12 00:11:57;;;;;;;3.47;3.17;;;;;;;;;;4918310;29;20212;-83
2021/08/12 00:14:24;;;;;;;2.80;2.60;;;;;;;;;;4918435;29;20286;-83
2021/08/12 00:16:52;;;;;;;3.67;3.30;;;;;;;;;;4918822;29;20198;-82
2021/08/12 00:19:19;;;;;;;2.33;2.13;;;;;;;;;;4919063;29;20191;-83
2021/08/12 00:21:48;;;;;;;3.55;3.25;;;;;;;;;;4917826;29;20214;-83
2021/08/12 00:24:15;;;;;;;2.90;2.70;;;;;;;;;;4918150;29;20289;-83
2021/08/12 00:26:44;;;;;;;2.50;2.30;;;;;;;;;;4918280;29;20187;-83
2021/08/12 00:29:11;;;;;;;2.55;2.35;;;;;;;;;;4918698;29;20210;-83
2021/08/12 00:31:39;;;;;;;2.47;2.25;;;;;;;;;;4918461;29;20206;-83
2021/08/12 00:34:06;;;;;;;2.72;2.53;;;;;;;;;;4918219;29;20241;-83
2021/08/12 00:36:34;;;;;;;2.55;2.35;;;;;;;;;;4918624;29;20221;-83
2021/08/12 00:39:01;;;;;;;3.17;2.90;;;;;;;;;;4916909;29;20206;-83
2021/08/12 00:41:35;;;;;;;2.80;2.60;;;;;;;;;;4918232;29;20206;-83
2021/08/12 00:44:04;;;;;;;2.28;2.08;;;;;;;;;;4918259;29;20729;-82
2021/08/12 00:46:31;;;;;;;2.83;2.42;;;;;;;;;;4918064;29;20553;-83
2021/08/12 00:48:59;;;;;;;2.67;2.47;;;;;;;;;;4917924;29;20226;-83
2021/08/12 00:51:27;;;;;;;3.00;2.30;;;;;;;;;;4918189;29;20194;-82
2021/08/12 00:53:55;;;;;;;2.53;2.33;;;;;;;;;;4918006;29;20245;-83
2021/08/12 00:56:22;;;;;;;2.78;2.58;;;;;;;;;;4917917;29;20669;-83
2021/08/12 00:58:49;;;;;;;2.10;1.90;;;;;;;;;;4917454;29;20207;-82
2021/08/12 01:01:18;;;;;;;3.25;3.05;;;;;;;;;;4917471;29;20225;-83
2021/08/12 01:03:46;;;;;;;2.00;1.90;;;;;;;;;;4918027;29;20241;-83
2021/08/12 01:06:18;;;;;;;1.80;1.70;;;;;;;;;;4917844;29;20214;-82
2021/08/12 01:08:54;;;;;;;1.60;1.50;;;;;;;;;;4917863;29;20681;-83
2021/08/12 01:11:29;;;;;;;1.60;1.50;;;;;;;;;;4917952;29;20190;-83
2021/08/12 01:14:09;;;;;;;1.70;1.60;;;;;;;;;;4918116;29;20312;-83
2021/08/12 01:16:43;;;;;;;1.60;1.50;;;;;;;;;;4917262;29;20544;-82
2021/08/12 01:19:41;;;;;;;1.92;1.83;;;;;;;;;;4917560;29;20190;-82
2021/08/12 01:22:08;;;;;;;2.50;2.30;;;;;;;;;;4886021;29;20202;-83
2021/08/12 01:24:40;;;;;;;2.60;2.40;;;;;;;;;;4917585;29;20226;-83
2021/08/12 01:27:11;;;;;;;2.58;2.38;;;;;;;;;;4917192;29;20668;-83
2021/08/12 01:29:50;;;;;;;2.47;2.28;;;;;;;;;;4917884;29;20712;-83
2021/08/12 01:32:26;;;;;;;2.78;2.47;;;;;;;;;;4918088;29;20238;-83
2021/08/12 01:35:06;;;;;;;2.33;2.17;;;;;;;;;;4917985;29;20257;-83
2021/08/12 01:37:36;;;;;;;2.22;2.03;;;;;;;;;;4918742;29;20201;-83
2021/08/12 01:40:07;;;;;;;2.10;2.00;;;;;;;;;;4918486;29;20187;-83
2021/08/12 01:42:36;;;;;;;2.28;2.08;;;;;;;;;;4918232;29;20206;-83
2021/08/12 01:45:05;;;;;;;2.40;2.20;;;;;;;;;;4917714;29;20214;-83
2021/08/12 01:47:33;;;;;;;1.75;1.65;;;;;;;;;;4916952;29;20190;-83
2021/08/12 01:50:04;;;;;;;2.08;1.98;;;;;;;;;;4916444;29;20226;-82
2021/08/12 01:52:34;;;;;;;2.30;2.10;;;;;;;;;;4916947;29;20209;-83
2021/08/12 01:55:01;;;;;;;1.83;1.73;;;;;;;;;;4917042;29;20221;-83
2021/08/12 01:57:29;;;;;;;2.10;2.00;;;;;;;;;;4916872;29;20208;-82
2021/08/12 01:59:57;;;;;;;1.70;1.60;;;;;;;;;;4916822;29;20588;-82
2021/08/12 02:02:25;;;;;;;2.28;2.13;;;;;;;;;;4916614;29;20213;-82
2021/08/12 02:04:54;;;;;;;2.47;2.28;;;;;;;;;;4916606;29;20245;-82
2021/08/12 02:07:23;;;;;;;2.25;2.05;;;;;;;;;;4916481;29;20193;-83
2021/08/12 02:09:50;;;;;;;2.30;2.10;;;;;;;;;;4917132;29;20233;-83
2021/08/12 02:12:17;;;;;;;2.72;2.53;;;;;;;;;;4916868;29;20229;-82
2021/08/12 02:14:45;;;;;;;2.38;2.17;;;;;;;;;;4916559;29;20697;-83
2021/08/12 02:17:14;;;;;;;2.75;2.53;;;;;;;;;;4916857;29;20195;-82
2021/08/12 02:19:42;;;;;;;2.20;2.00;;;;;;;;;;4916217;29;20198;-83
2021/08/12 02:22:13;;;;;;;2.03;1.92;;;;;;;;;;4916830;29;20213;-84
2021/08/12 02:24:49;;;;;;;2.47;2.33;;;;;;;;;;4918055;29;20226;-83
2021/08/12 02:27:20;;;;;;;2.00;1.90;;;;;;;;;;4916796;29;20246;-83
2021/08/12 02:29:49;;;;;;;2.78;2.58;;;;;;;;;;4920261;29;20218;-84
2021/08/12 02:32:18;;;;;;;1.70;1.60;;;;;;;;;;4921171;29;20191;-83
2021/08/12 02:34:45;;;;;;;2.00;1.80;;;;;;;;;;4920137;29;20242;-83
2021/08/12 02:37:16;;;;;;;2.30;2.20;;;;;;;;;;4919168;29;20207;-82
2021/08/12 02:39:46;;;;;;;3.00;2.80;;;;;;;;;;4920204;29;20201;-84
2021/08/12 02:42:14;;;;;;;3.30;3.05;;;;;;;;;;4920159;29;20193;-83
2021/08/12 02:44:43;;;;;;;2.80;2.40;;;;;;;;;;4919913;29;20230;-83
2021/08/12 02:47:11;;;;;;;2.58;2.38;;;;;;;;;;4920894;29;20191;-84
2021/08/12 02:49:42;;;;;;;2.55;2.35;;;;;;;;;;4920356;29;20596;-83
2021/08/12 02:52:11;;;;;;;2.20;2.00;;;;;;;;;;4921117;29;20191;-83
2021/08/12 02:54:39;;;;;;;2.35;2.15;;;;;;;;;;4920344;29;20607;-84
2021/08/12 02:57:08;;;;;;;2.40;2.20;;;;;;;;;;4920912;29;20190;-84
2021/08/12 02:59:36;;;;;;;2.50;2.30;;;;;;;;;;4921002;29;20191;-84
2021/08/12 03:02:05;;;;;;;2.58;2.38;;;;;;;;;;4925832;29;20202;-84
2021/08/12 03:04:32;;;;;;;3.38;3.13;;;;;;;;;;4925296;29;20233;-84
2021/08/12 03:07:01;;;;;;;2.47;2.28;;;;;;;;;;4927995;29;20206;-84
2021/08/12 03:09:29;;;;;;;2.78;2.58;;;;;;;;;;4928008;29;20231;-83
2021/08/12 03:12:00;;;;;;;2.85;2.65;;;;;;;;;;4921738;29;20207;-84
2021/08/12 03:14:30;;;;;;;2.28;2.08;;;;;;;;;;4910798;29;20227;-83
2021/08/12 03:16:58;;;;;;;3.20;2.92;;;;;;;;;;4900990;29;20195;-83
2021/08/12 03:19:26;;;;;;;2.85;2.55;;;;;;;;;;4903314;29;20665;-83
2021/08/12 03:22:04;;;;;;;2.42;2.22;;;;;;;;;;4919306;29;20206;-83
2021/08/12 03:24:35;;;;;;;2.35;2.15;;;;;;;;;;4919773;29;20232;-83
2021/08/12 03:27:04;;;;;;;1.95;1.80;;;;;;;;;;4919815;29;20544;-83
2021/08/12 03:29:33;;;;;;;2.33;2.22;;;;;;;;;;4919475;29;20657;-83
2021/08/12 03:32:00;;;;;;;2.00;1.90;;;;;;;;;;4919112;29;20215;-83
2021/08/12 03:34:28;;;;;;;1.73;1.63;;;;;;;;;;4919123;29;20238;-83
2021/08/12 03:36:55;;;;;;;1.67;1.58;;;;;;;;;;4919229;29;20210;-83
2021/08/12 03:39:22;;;;;;;2.15;2.05;;;;;;;;;;4919066;29;20778;-83
2021/08/12 03:41:51;;;;;;;1.98;1.88;;;;;;;;;;4919465;29;20183;-83
2021/08/12 03:44:18;;;;;;;2.28;2.08;;;;;;;;;;4903932;29;20250;-83
2021/08/12 03:46:47;;;;;;;2.05;1.95;;;;;;;;;;4900726;29;20623;-82
2021/08/12 03:49:14;;;;;;;1.77;1.67;;;;;;;;;;4900125;29;20273;-83
2021/08/12 03:51:42;;;;;;;2.13;2.00;;;;;;;;;;4900806;29;20218;-83
2021/08/12 03:54:09;;;;;;;2.25;2.08;;;;;;;;;;4898769;29;20235;-82
2021/08/12 03:56:37;;;;;;;1.85;1.75;;;;;;;;;;4898517;29;20214;-83
2021/08/12 03:59:05;;;;;;;2.42;2.22;;;;;;;;;;4899032;29;20211;-82
2021/08/12 04:01:32;;;;;;;2.10;1.95;;;;;;;;;;4899110;29;20234;-82
2021/08/12 04:04:03;;;;;;;2.17;2.08;;;;;;;;;;4898989;29;20577;-83
2021/08/12 04:06:31;;;;;;;2.38;2.17;;;;;;;;;;4898852;29;20214;-82
2021/08/12 04:08:58;;;;;;;1.80;1.70;;;;;;;;;;4900674;29;20183;-83
2021/08/12 04:11:25;;;;;;;2.03;1.90;;;;;;;;;;4900531;29;20226;-84
2021/08/12 04:13:53;;;;;;;1.90;1.80;;;;;;;;;;4901653;29;20230;-84
2021/08/12 04:16:20;;;;;;;1.98;1.83;;;;;;;;;;4901616;29;20214;-82
2021/08/12 04:18:48;;;;;;;1.95;1.85;;;;;;;;;;4900741;29;20633;-84
2021/08/12 04:21:17;;;;;;;1.83;1.73;;;;;;;;;;4900941;29;20229;-84
2021/08/12 04:23:44;;;;;;;1.90;1.80;;;;;;;;;;4901967;29;20231;-83
2021/08/12 04:26:12;;;;;;;1.85;1.75;;;;;;;;;;4901685;29;20221;-83
2021/08/12 04:28:39;;;;;;;2.22;2.05;;;;;;;;;;4918721;29;20654;-84
2021/08/12 04:31:07;;;;;;;2.33;2.22;;;;;;;;;;4921117;29;20301;-83
2021/08/12 04:33:34;;;;;;;2.70;2.50;;;;;;;;;;4919801;29;20212;-84
2021/08/12 04:36:01;;;;;;;2.67;2.47;;;;;;;;;;4919799;29;20206;-84
2021/08/12 04:38:30;;;;;;;2.53;2.33;;;;;;;;;;4920192;29;20202;-84
2021/08/12 04:40:58;;;;;;;2.38;2.17;;;;;;;;;;4920286;29;20194;-84
2021/08/12 04:43:25;;;;;;;2.10;2.00;;;;;;;;;;4923501;29;20294;-83
2021/08/12 04:45:52;;;;;;;2.33;2.13;;;;;;;;;;4919029;29;20595;-83
2021/08/12 04:48:20;;;;;;;2.10;1.88;;;;;;;;;;4919322;29;20206;-84
2021/08/12 04:50:47;;;;;;;2.20;2.08;;;;;;;;;;4919038;29;20323;-83
2021/08/12 04:53:15;;;;;;;2.30;2.10;;;;;;;;;;4919755;29;20217;-84
2021/08/12 04:55:44;;;;;;;2.72;2.53;;;;;;;;;;4920052;29;20222;-84
2021/08/12 04:58:11;;;;;;;4.03;3.72;;;;;;;;;;4918944;29;20199;-83
2021/08/12 05:00:38;;;;;;;2.90;2.70;;;;;;;;;;4919371;29;20213;-84
2021/08/12 05:03:07;;;;;;;2.60;2.40;;;;;;;;;;4919754;29;20189;-84
2021/08/12 05:05:35;;;;;;;2.50;2.30;;;;;;;;;;4920752;29;20704;-83
2021/08/12 05:08:03;;;;;;;2.58;2.33;;;;;;;;;;4920267;29;20273;-84
2021/08/12 05:10:31;;;;;;;2.60;2.40;;;;;;;;;;4920055;29;20206;-84
2021/08/12 05:12:59;;;;;;;4.75;4.35;;;;;;;;;;4920821;29;20195;-84
2021/08/12 05:15:27;;;;;;;3.65;3.35;;;;;;;;;;4921143;29;20237;-84
2021/08/12 05:17:55;;;;;;;3.22;3.03;;;;;;;;;;4918133;29;20595;-83
2021/08/12 05:20:23;;;;;;;3.90;3.58;;;;;;;;;;4917484;29;20198;-84
2021/08/12 05:22:51;;;;;;;3.70;3.40;;;;;;;;;;4918009;29;20238;-84
2021/08/12 05:25:18;;;;;;;4.43;4.03;;;;;;;;;;4917691;29;20230;-84
2021/08/12 05:27:45;;;;;;;3.47;3.17;;;;;;;;;;4917881;29;20282;-83
2021/08/12 05:30:14;;;;;;;4.15;3.75;;;;;;;;;;4917691;29;20220;-83
2021/08/12 05:32:42;;;;;;;4.82;4.05;;;;;;;;;;4917456;29;20207;-83
2021/08/12 05:35:11;;;;;;;4.28;3.97;;;;;;;;;;4917516;29;20271;-83
2021/08/12 05:37:38;;;;;;;3.90;3.60;;;;;;;;;;4918089;29;20201;-84
2021/08/12 05:40:07;;;;;;;4.60;4.05;;;;;;;;;;4917916;29;20206;-84
2021/08/12 05:42:35;;;;;;;4.43;4.03;;;;;;;;;;4917600;29;20189;-83
2021/08/12 05:45:02;;;;;;;4.93;4.43;;;;;;;;;;4917284;29;20721;-83
2021/08/12 05:47:31;;;;;;;4.38;3.78;;;;;;;;;;4917994;29;20190;-83
2021/08/12 05:49:59;;;;;;;3.92;3.53;;;;;;;;;;4918292;29;20185;-83
2021/08/12 05:52:26;;;;;;;5.25;4.13;;;;;;;;;;4917819;29;20222;-83
2021/08/12 05:54:53;;;;;;;4.80;4.30;;;;;;;;;;4917773;29;20431;-83
2021/08/12 05:57:21;;;;;;;4.70;3.63;;;;;;;;;;4917947;29;20197;-83
2021/08/12 05:59:48;;;;;;;4.55;3.88;;;;;;;;;;4917676;29;20197;-83
2021/08/12 06:02:16;;;;;;;3.95;3.65;;;;;;;;;;4917504;29;20193;-83
2021/08/12 06:04:44;;;;;;;3.58;3.28;;;;;;;;;;4919433;29;20229;-83
2021/08/12 06:07:12;;;;;;;4.38;3.70;;;;;;;;;;4920718;29;20210;-82
2021/08/12 06:09:39;;;;;;;4.15;3.58;;;;;;;;;;4920430;29;20198;-82
2021/08/12 06:12:08;;;;;;;4.05;3.28;;;;;;;;;;4919958;29;20227;-82
2021/08/12 06:14:37;;;;;;;4.90;3.65;;;;;;;;;;4920520;29;20622;-83
2021/08/12 06:17:05;;;;;;;3.72;3.42;;;;;;;;;;4920316;29;20210;-82
2021/08/12 06:19:33;;;;;;;4.82;4.40;;;;;;;;;;4921348;29;20197;-82
2021/08/12 06:22:01;;;;;;;4.70;4.05;;;;;;;;;;4920462;29;20213;-83
2021/08/12 06:24:29;;;;;;;3.40;3.20;;;;;;;;;;4920879;29;20705;-83
2021/08/12 06:26:57;;;;;;;3.80;3.40;;;;;;;;;;4921684;29;20638;-83
2021/08/12 06:29:24;;;;;;;3.92;3.60;;;;;;;;;;4920792;29;20272;-82
2021/08/12 06:31:53;;;;;;;3.88;3.47;;;;;;;;;;4920800;29;20214;-82
2021/08/12 06:34:20;;;;;;;4.68;4.28;;;;;;;;;;4920007;29;20324;-83
2021/08/12 06:36:47;;;;;;;5.03;4.57;;;;;;;;;;4920489;29;20210;-82
2021/08/12 06:39:16;;;;;;;4.80;4.40;;;;;;;;;;4920487;29;20210;-82
2021/08/12 06:41:43;;;;;;;4.40;4.00;;;;;;;;;;4920413;29;20202;-83
2021/08/12 06:44:11;;;;;;;5.05;4.55;;;;;;;;;;4918745;29;20234;-84
2021/08/12 06:46:39;;;;;;;4.80;4.40;;;;;;;;;;4920528;29;20191;-83
2021/08/12 06:49:07;;;;;;;4.40;4.03;;;;;;;;;;4919656;29;20217;-83
2021/08/12 06:51:35;;;;;;;4.05;3.75;;;;;;;;;;4918871;29;22102;-83
2021/08/12 06:54:03;;;;;;;5.32;4.78;;;;;;;;;;4919653;29;20286;-83
2021/08/12 06:56:32;;;;;;;4.75;4.25;;;;;;;;;;4919798;29;20198;-84
2021/08/12 06:58:59;;;;;;;4.80;4.40;;;;;;;;;;4916434;29;20568;-84
2021/08/12 07:01:27;;;;;;;4.65;4.32;;;;;;;;;;4919649;29;20195;-82
2021/08/12 07:03:55;;;;;;;4.00;3.63;;;;;;;;;;4919508;29;20238;-83
2021/08/12 07:06:22;;;;;;;2.90;2.70;;;;;;;;;;4920267;29;20201;-83
2021/08/12 07:08:54;;;;;;;2.78;2.58;;;;;;;;;;4920153;29;20191;-82
2021/08/12 07:11:22;;;;;;;2.88;2.67;;;;;;;;;;4919596;29;20210;-82
2021/08/12 07:13:51;;;;;;;3.17;2.92;;;;;;;;;;4919483;29;20234;-82
2021/08/12 07:16:18;;;;;;;3.58;3.10;;;;;;;;;;4918971;29;20687;-83
2021/08/12 07:18:46;;;;;;;3.72;3.40;;;;;;;;;;4919386;29;20653;-82
2021/08/12 07:21:15;;;;;;;3.00;2.70;;;;;;;;;;4907897;29;20218;-83
2021/08/12 07:23:42;;;;;;;3.13;2.83;;;;;;;;;;4900669;29;20230;-82
2021/08/12 07:26:12;;;;;;;3.38;3.08;;;;;;;;;;4900451;29;20219;-83
2021/08/12 07:28:41;;;;;;;3.33;3.03;;;;;;;;;;4900556;29;20643;-82
2021/08/12 07:31:11;;;;;;;2.70;2.50;;;;;;;;;;4900401;29;20192;-82
2021/08/12 07:33:38;;;;;;;3.50;3.20;;;;;;;;;;4900086;29;20250;-84
2021/08/12 07:36:07;;;;;;;3.03;2.72;;;;;;;;;;4900196;29;20214;-82
2021/08/12 07:38:35;;;;;;;3.00;2.80;;;;;;;;;;4905897;29;20202;-83
2021/08/12 07:41:03;;;;;;;3.20;2.92;;;;;;;;;;4915725;29;20262;-84
2021/08/12 07:43:31;;;;;;;3.58;3.22;;;;;;;;;;4919210;29;20274;-84
2021/08/12 07:45:58;;;;;;;3.83;3.22;;;;;;;;;;4919157;29;20190;-83
2021/08/12 07:48:27;;;;;;;3.33;3.03;;;;;;;;;;4918731;29;20214;-83
2021/08/12 07:50:55;;;;;;;3.42;3.13;;;;;;;;;;4919215;29;20202;-83
2021/08/12 07:53:23;;;;;;;3.15;2.88;;;;;;;;;;4918625;29;20206;-83
2021/08/12 07:55:52;;;;;;;3.78;3.45;;;;;;;;;;4918341;29;20224;-84
2021/08/12 07:58:19;;;;;;;3.17;2.85;;;;;;;;;;4918288;29;20740;-84
2021/08/12 08:00:47;;;;;;;2.92;2.72;;;;;;;;;;4918582;29;20193;-83
2021/08/12 08:03:16;;;;;;;3.35;3.05;;;;;;;;;;4918378;29;20202;-84
2021/08/12 08:05:45;;;;;;;3.58;3.28;;;;;;;;;;4918202;29;20226;-83
2021/08/12 08:08:12;;;;;;;2.80;2.60;;;;;;;;;;4900085;29;20213;-85
2021/08/12 08:10:41;;;;;;;3.17;2.88;;;;;;;;;;4902084;29;20202;-84
2021/08/12 08:13:09;;;;;;;3.38;3.13;;;;;;;;;;4917713;29;20214;-83
2021/08/12 08:15:36;;;;;;;2.95;2.45;;;;;;;;;;4917937;29;20241;-83
2021/08/12 08:18:04;;;;;;;2.92;2.72;;;;;;;;;;4914560;29;20191;-84
2021/08/12 08:20:32;;;;;;;3.38;2.97;;;;;;;;;;4899540;29;20199;-84
2021/08/12 08:23:06;;;;;;;3.95;3.65;;;;;;;;;;4899127;29;20770;-84
2021/08/12 08:25:34;;;;;;;4.63;3.45;;;;;;;;;;4899020;29;20230;-84
2021/08/12 08:28:02;;;;;;;4.30;3.17;;;;;;;;;;4901054;29;20198;-85
2021/08/12 08:30:32;;;;;;;3.17;2.88;;;;;;;;;;4917612;29;20191;-83
2021/08/12 08:33:01;;;;;;;4.05;3.30;;;;;;;;;;4917539;29;20237;-84
2021/08/12 08:35:29;;;;;;;4.35;3.15;;;;;;;;;;4917151;29;20249;-84
2021/08/12 08:37:58;;;;;;;3.10;2.80;;;;;;;;;;4918240;29;20195;-84
2021/08/12 08:40:27;;;;;;;3.47;3.17;;;;;;;;;;4918253;29;20277;-84
2021/08/12 08:42:55;;;;;;;3.25;3.00;;;;;;;;;;4917634;29;20202;-83
2021/08/12 08:45:25;;;;;;;3.30;3.00;;;;;;;;;;4917050;29;20226;-83
2021/08/12 08:47:54;;;;;;;3.22;2.92;;;;;;;;;;4917467;29;20202;-83
2021/08/12 08:50:25;;;;;;;3.15;2.95;;;;;;;;;;4917321;29;20285;-84
2021/08/12 08:52:53;;;;;;;2.90;2.70;;;;;;;;;;4916986;29;20697;-83
2021/08/12 08:55:23;;;;;;;2.60;2.40;;;;;;;;;;4916993;29;20740;-84
2021/08/12 08:57:54;;;;;;;3.67;3.38;;;;;;;;;;4906247;29;20290;-82
2021/08/12 09:00:22;;;;;;;3.65;3.35;;;;;;;;;;4898462;29;20215;-83
2021/08/12 09:02:50;;;;;;;3.28;3.00;;;;;;;;;;4898563;29;20191;-83
2021/08/12 09:05:18;;;;;;;3.95;3.65;;;;;;;;;;4898188;29;20314;-83
2021/08/12 09:07:46;;;;;;;3.90;3.15;;;;;;;;;;4898309;29;20207;-84
2021/08/12 09:10:16;;;;;;;2.85;2.65;;;;;;;;;;4898291;29;20198;-83
2021/08/12 09:12:46;;;;;;;3.10;2.80;;;;;;;;;;4898386;29;20231;-83
2021/08/12 09:15:20;;;;;;;2.67;2.47;;;;;;;;;;4891763;29;20242;-84
2021/08/12 09:17:48;;;;;;;2.80;2.60;;;;;;;;;;4901035;29;20195;-83
2021/08/12 09:20:19;;;;;;;4.95;3.22;;;;;;;;;;4915952;29;20655;-84
2021/08/12 09:22:57;;;;;;;3.25;3.03;;;;;;;;;;4917326;29;20195;-84
2021/08/12 09:25:39;;;;;;;2.92;2.72;;;;;;;;;;4917285;29;20232;-84
2021/08/12 09:28:26;;;;;;;3.00;2.80;;;;;;;;;;4917104;29;20202;-84
2021/08/12 09:31:12;;;;;;;2.67;2.47;;;;;;;;;;4916899;29;20187;-83
2021/08/12 09:33:53;;;;;;;3.15;2.85;;;;;;;;;;4911786;29;20225;-83
2021/08/12 09:36:27;;;;;;;2.75;2.55;;;;;;;;;;4918544;29;20202;-84
2021/08/12 09:39:09;;;;;;;3.70;2.58;;;;;;;;;;4917913;29;20222;-87
2021/08/12 09:41:49;;;;;;;2.80;2.60;;;;;;;;;;4917018;29;20200;-85
2021/08/12 09:44:41;;;;;;;2.95;2.65;;;;;;;;;;4916522;29;20624;-90
2021/08/12 09:47:13;;;;;;;2.92;2.70;;;;;;;;;;4919054;29;20293;-84
2021/08/12 09:49:49;;;;;;;3.45;2.45;;;;;;;;;;4916744;29;20198;-83
2021/08/12 09:52:32;;;;;;;2.50;2.30;;;;;;;;;;4918344;29;20194;-84
2021/08/12 09:55:09;;;;;;;2.90;2.70;;;;;;;;;;4914063;29;20291;-83
2021/08/12 09:57:44;;;;;;;3.88;3.47;;;;;;;;;;4918992;29;20193;-84
2021/08/12 10:00:28;;;;;;;2.95;2.75;;;;;;;;;;4918063;29;20182;-83
2021/08/12 10:02:58;;;;;;;3.25;2.95;;;;;;;;;;4917991;29;20210;-83
2021/08/12 10:05:25;;;;;;;4.85;3.53;;;;;;;;;;4919622;29;20223;-84
2021/08/12 10:07:56;;;;;;;2.97;2.72;;;;;;;;;;4920251;29;20199;-84
2021/08/12 10:10:26;;;;;;;3.63;3.30;;;;;;;;;;4918405;29;20202;-84
2021/08/12 10:12:57;;;;;;;3.50;3.20;;;;;;;;;;4919290;29;20238;-83
2021/08/12 10:15:27;;;;;;;3.03;2.83;;;;;;;;;;4918801;29;20226;-84
2021/08/12 10:17:57;;;;;;;5.95;2.90;;;;;;;;;;4918861;29;20207;-84
2021/08/12 10:20:27;;;;;;;4.70;3.88;;;;;;;;;;4918009;29;20194;-84
2021/08/12 10:22:59;;;;;;;2.55;2.33;;;;;;;;;;4917960;29;20258;-83
2021/08/12 10:25:28;;;;;;;2.42;2.28;;;;;;;;;;4917306;29;20644;-83
2021/08/12 10:27:57;;;;;;;3.67;3.35;;;;;;;;;;4919170;29;20596;-84
2021/08/12 10:30:27;;;;;;;2.80;2.60;;;;;;;;;;4917122;29;20206;-82
2021/08/12 10:32:58;;;;;;;2.50;2.30;;;;;;;;;;4917994;29;20191;-82
2021/08/12 10:35:28;;;;;;;3.47;2.33;;;;;;;;;;4917309;29;20238;-82
2021/08/12 10:37:56;;;;;;;2.35;2.15;;;;;;;;;;4917634;29;20569;-83
2021/08/12 10:40:28;;;;;;;2.22;2.13;;;;;;;;;;4918178;29;20195;-83
2021/08/12 10:42:56;;;;;;;3.20;2.90;;;;;;;;;;4917123;29;20194;-82
2021/08/12 10:45:26;;;;;;;3.35;3.05;;;;;;;;;;4917789;29;20265;-83
2021/08/12 10:47:55;;;;;;;3.40;3.13;;;;;;;;;;4917347;29;20198;-82
2021/08/12 10:50:38;;;;;;;2.67;2.47;;;;;;;;;;4919585;29;20556;-83
2021/08/12 10:53:19;;;;;;;2.58;2.38;;;;;;;;;;4921000;29;20187;-83
2021/08/12 10:56:16;;;;;;;2.63;2.45;;;;;;;;;;4920818;29;20222;-83
2021/08/12 10:59:04;;;;;;;2.58;2.38;;;;;;;;;;4920570;29;20201;-82
2021/08/12 11:01:36;;;;;;;2.88;2.67;;;;;;;;;;4920609;29;20206;-83
2021/08/12 11:04:06;;;;;;;2.28;2.08;;;;;;;;;;4920732;29;20222;-83
2021/08/12 11:06:42;;;;;;;2.10;2.00;;;;;;;;;;4917163;29;20184;-82
2021/08/12 11:09:10;;;;;;;2.05;1.90;;;;;;;;;;4920624;29;20206;-83
2021/08/12 11:11:58;;;;;;;2.35;2.15;;;;;;;;;;4920122;29;20191;-83
2021/08/12 11:14:59;;;;;;;2.28;2.08;;;;;;;;;;4920120;29;20253;-83
2021/08/12 11:17:55;;;;;;;2.83;2.63;;;;;;;;;;4920853;29;20197;-83
2021/08/12 11:20:34;;;;;;;3.53;2.10;;;;;;;;;;4920297;29;20210;-82
2021/08/12 11:23:39;;;;;;;2.13;2.03;;;;;;;;;;4920636;29;20194;-82
2021/08/12 11:26:10;;;;;;;2.10;2.00;;;;;;;;;;4920292;29;20193;-83
2021/08/12 11:28:51;;;;;;;2.28;2.17;;;;;;;;;;4920041;29;20202;-83
2021/08/12 11:31:52;;;;;;;2.08;1.88;;;;;;;;;;4920650;29;20557;-83
2021/08/12 11:34:28;;;;;;;1.90;1.80;;;;;;;;;;4920038;29;20238;-83
2021/08/12 11:37:08;;;;;;;1.88;1.77;;;;;;;;;;4920325;29;20210;-82
2021/08/12 11:39:51;;;;;;;2.60;2.40;;;;;;;;;;4920165;29;20210;-83
2021/08/12 11:42:30;;;;;;;2.55;2.35;;;;;;;;;;4920063;29;20299;-84
2021/08/12 11:45:01;;;;;;;2.45;2.28;;;;;;;;;;4920022;29;20594;-83
2021/08/12 11:47:28;;;;;;;2.60;2.45;;;;;;;;;;4919875;29;20195;-82
2021/08/12 11:49:58;;;;;;;2.35;2.22;;;;;;;;;;4919828;29;20287;-83
2021/08/12 11:52:28;;;;;;;2.25;2.15;;;;;;;;;;4920090;29;20198;-82
2021/08/12 11:55:00;;;;;;;2.30;2.10;;;;;;;;;;4920006;29;20237;-83
2021/08/12 11:57:46;;;;;;;2.13;2.03;;;;;;;;;;4919726;29;20209;-83
2021/08/12 12:00:15;;;;;;;2.20;2.05;;;;;;;;;;4919215;29;20186;-83
2021/08/12 12:02:51;;;;;;;2.60;2.40;;;;;;;;;;4919306;29;20701;-83
2021/08/12 12:05:21;;;;;;;2.70;2.50;;;;;;;;;;4919809;29;20226;-83
2021/08/12 12:07:50;;;;;;;2.33;2.15;;;;;;;;;;4919788;29;20213;-82
2021/08/12 12:10:26;;;;;;;2.30;2.20;;;;;;;;;;4919972;29;20215;-84
2021/08/12 12:12:54;;;;;;;2.80;2.60;;;;;;;;;;4920078;29;20196;-84
2021/08/12 12:15:33;;;;;;;2.60;2.40;;;;;;;;;;4919675;29;20694;-84
2021/08/12 12:18:01;;;;;;;3.55;3.25;;;;;;;;;;4919080;29;20202;-83
2021/08/12 12:20:30;;;;;;;2.65;2.45;;;;;;;;;;4920007;29;20201;-83
2021/08/12 12:23:00;;;;;;;2.78;2.28;;;;;;;;;;4919664;29;20193;-83
2021/08/12 12:25:29;;;;;;;2.58;2.38;;;;;;;;;;4919203;29;20222;-83
2021/08/12 12:27:57;;;;;;;2.20;2.10;;;;;;;;;;4919857;29;20203;-83
2021/08/12 12:30:28;;;;;;;1.80;1.70;;;;;;;;;;4919384;29;20215;-83
2021/08/12 12:33:01;;;;;;;1.98;1.88;;;;;;;;;;4919643;29;20187;-83
2021/08/12 12:35:31;;;;;;;3.40;2.10;;;;;;;;;;4919071;29;20656;-83
2021/08/12 12:37:59;;;;;;;1.83;1.73;;;;;;;;;;4919150;29;20575;-83
2021/08/12 12:40:29;;;;;;;2.53;2.33;;;;;;;;;;4919444;29;20191;-84
2021/08/12 12:42:57;;;;;;;2.78;2.58;;;;;;;;;;4919076;29;20287;-83
2021/08/12 12:45:24;;;;;;;1.95;1.85;;;;;;;;;;4919623;29;20237;-84
2021/08/12 12:47:53;;;;;;;2.58;2.40;;;;;;;;;;4919250;29;20646;-83
2021/08/12 12:50:23;;;;;;;2.47;2.28;;;;;;;;;;4919516;29;20187;-83
2021/08/12 12:53:01;;;;;;;2.33;2.10;;;;;;;;;;4919053;29;20565;-84
2021/08/12 12:55:33;;;;;;;2.65;2.22;;;;;;;;;;4918735;29;20221;-84
2021/08/12 12:58:02;;;;;;;2.75;2.30;;;;;;;;;;4918965;29;20195;-84
2021/08/12 13:00:33;;;;;;;2.55;2.38;;;;;;;;;;4918302;29;20229;-83
2021/08/12 13:03:02;;;;;;;2.50;2.30;;;;;;;;;;4919202;29;20186;-84
2021/08/12 13:05:49;;;;;;;2.55;2.35;;;;;;;;;;4918819;29;20226;-84
2021/08/12 13:08:18;;;;;;;2.20;2.00;;;;;;;;;;4918785;29;20205;-84
2021/08/12 13:11:01;;;;;;;2.35;2.15;;;;;;;;;;4918842;29;20195;-84
2021/08/12 13:13:28;;;;;;;2.53;2.35;;;;;;;;;;4918232;29;20206;-84
2021/08/12 13:15:56;;;;;;;2.33;2.20;;;;;;;;;;4919322;29;20217;-84
2021/08/12 13:18:23;;;;;;;3.10;2.15;;;;;;;;;;4918690;29;20215;-83
2021/08/12 13:20:51;;;;;;;3.10;2.90;;;;;;;;;;4918318;29;20203;-84
2021/08/12 13:23:20;;;;;;;2.70;1.95;;;;;;;;;;4918640;29;20187;-83
2021/08/12 13:25:57;;;;;;;3.40;2.75;;;;;;;;;;4918574;29;20191;-84
2021/08/12 13:28:35;;;;;;;2.42;2.33;;;;;;;;;;4918908;29;20555;-84
2021/08/12 13:31:16;;;;;;;2.22;2.03;;;;;;;;;;4917879;29;20662;-84
2021/08/12 13:33:44;;;;;;;2.88;2.67;;;;;;;;;;4918546;29;20650;-83
2021/08/12 13:36:11;;;;;;;2.60;2.40;;;;;;;;;;4918243;29;20234;-83
2021/08/12 13:38:40;;;;;;;2.05;1.95;;;;;;;;;;4916408;29;20206;-83
2021/08/12 13:41:07;;;;;;;2.22;2.13;;;;;;;;;;4916364;29;20214;-82
2021/08/12 13:43:35;;;;;;;2.05;1.90;;;;;;;;;;4916409;29;20210;-82
2021/08/12 13:46:02;;;;;;;2.45;2.25;;;;;;;;;;4916407;29;20206;-83
2021/08/12 13:48:30;;;;;;;2.50;2.30;;;;;;;;;;4916719;29;20210;-83
2021/08/12 13:50:57;;;;;;;2.50;2.30;;;;;;;;;;4916661;29;20213;-83
2021/08/12 13:53:24;;;;;;;1.80;1.70;;;;;;;;;;4916427;29;20206;-83
2021/08/12 13:55:53;;;;;;;2.50;2.35;;;;;;;;;;4916665;29;20206;-83
2021/08/12 13:58:21;;;;;;;2.20;2.00;;;;;;;;;;4916341;29;20697;-82
2021/08/12 14:00:48;;;;;;;2.15;2.05;;;;;;;;;;4916146;29;20211;-83
2021/08/12 14:03:20;;;;;;;2.25;2.08;;;;;;;;;;4916513;29;20206;-83
2021/08/12 14:05:48;;;;;;;2.97;2.17;;;;;;;;;;4916589;29;20257;-82
2021/08/12 14:08:16;;;;;;;2.08;1.98;;;;;;;;;;4916445;29;20668;-83
2021/08/12 14:10:43;;;;;;;2.70;2.50;;;;;;;;;;4916676;29;20206;-83
2021/08/12 14:13:13;;;;;;;1.90;1.80;;;;;;;;;;4916545;29;20645;-83
2021/08/12 14:15:42;;;;;;;2.30;2.10;;;;;;;;;;4915998;29;20226;-83
2021/08/12 14:18:10;;;;;;;2.17;2.03;;;;;;;;;;4916600;29;20207;-83
2021/08/12 14:20:37;;;;;;;2.10;2.00;;;;;;;;;;4916938;29;20450;-83
2021/08/12 14:23:05;;;;;;;2.85;2.65;;;;;;;;;;4916390;29;20190;-83
2021/08/12 14:25:32;;;;;;;1.98;1.85;;;;;;;;;;4918954;29;20252;-83
2021/08/12 14:28:00;;;;;;;1.92;1.83;;;;;;;;;;4920506;29;20191;-83
2021/08/12 14:30:29;;;;;;;2.13;2.03;;;;;;;;;;4914176;29;20206;-83
2021/08/12 14:32:56;;;;;;;1.92;1.83;;;;;;;;;;4901167;29;20203;-83
2021/08/12 14:35:23;;;;;;;1.75;1.65;;;;;;;;;;4900745;29;20242;-83
2021/08/12 14:37:51;;;;;;;1.80;1.70;;;;;;;;;;4900676;29;20238;-83
2021/08/12 14:40:21;;;;;;;2.28;2.17;;;;;;;;;;4901010;29;20577;-83
2021/08/12 14:42:48;;;;;;;2.03;1.88;;;;;;;;;;4901065;29;20233;-83
2021/08/12 14:45:17;;;;;;;2.15;2.05;;;;;;;;;;4900866;29;20235;-83
2021/08/12 14:47:45;;;;;;;2.00;1.90;;;;;;;;;;4909538;29;20198;-83
2021/08/12 14:50:13;;;;;;;2.45;2.25;;;;;;;;;;4919687;29;20209;-83
2021/08/12 14:52:41;;;;;;;2.05;1.95;;;;;;;;;;4919631;29;20198;-83
2021/08/12 14:55:10;;;;;;;1.70;1.60;;;;;;;;;;4919531;29;20240;-83
2021/08/12 14:57:38;;;;;;;1.55;1.45;;;;;;;;;;4918905;29;20238;-82
2021/08/12 15:00:08;;;;;;;2.10;2.00;;;;;;;;;;4919719;29;20190;-82
2021/08/12 15:02:35;;;;;;;2.10;2.00;;;;;;;;;;4919835;29;20213;-82